Map

Track Data

SID SEASON NUMBER BASIN SUBBASIN NAME ISO_TIME NATURE LAT LON WMO_WIND WMO_PRES WMO_AGENCY TRACK_TYPE DIST2LAND LANDFALL IFLAG USA_AGENCY USA_ATCF_ID USA_LAT USA_LON USA_RECORD USA_STATUS USA_WIND USA_PRES USA_SSHS USA_R34_NE USA_R34_SE USA_R34_SW USA_R34_NW USA_R50_NE USA_R50_SE USA_R50_SW USA_R50_NW USA_R64_NE USA_R64_SE USA_R64_SW USA_R64_NW USA_POCI USA_ROCI USA_RMW USA_EYE TOKYO_LAT TOKYO_LON TOKYO_GRADE TOKYO_WIND TOKYO_PRES TOKYO_R50_DIR TOKYO_R50_LONG TOKYO_R50_SHORT TOKYO_R30_DIR TOKYO_R30_LONG TOKYO_R30_SHORT TOKYO_LAND CMA_LAT CMA_LON CMA_CAT CMA_WIND CMA_PRES HKO_LAT HKO_LON HKO_CAT HKO_WIND HKO_PRES NEWDELHI_LAT NEWDELHI_LON NEWDELHI_GRADE NEWDELHI_WIND NEWDELHI_PRES NEWDELHI_CI NEWDELHI_DP NEWDELHI_POCI REUNION_LAT REUNION_LON REUNION_TYPE REUNION_WIND REUNION_PRES REUNION_TNUM REUNION_CI REUNION_RMW REUNION_R34_NE REUNION_R34_SE REUNION_R34_SW REUNION_R34_NW REUNION_R50_NE REUNION_R50_SE REUNION_R50_SW REUNION_R50_NW REUNION_R64_NE REUNION_R64_SE REUNION_R64_SW REUNION_R64_NW BOM_LAT BOM_LON BOM_TYPE BOM_WIND BOM_PRES BOM_TNUM BOM_CI BOM_RMW BOM_R34_NE BOM_R34_SE BOM_R34_SW BOM_R34_NW BOM_R50_NE BOM_R50_SE BOM_R50_SW BOM_R50_NW BOM_R64_NE BOM_R64_SE BOM_R64_SW BOM_R64_NW BOM_ROCI BOM_POCI BOM_EYE BOM_POS_METHOD BOM_PRES_METHOD NADI_LAT NADI_LON NADI_CAT NADI_WIND NADI_PRES WELLINGTON_LAT WELLINGTON_LON WELLINGTON_WIND WELLINGTON_PRES DS824_LAT DS824_LON DS824_STAGE DS824_WIND DS824_PRES TD9636_LAT TD9636_LON TD9636_STAGE TD9636_WIND TD9636_PRES TD9635_LAT TD9635_LON TD9635_WIND TD9635_PRES TD9635_ROCI NEUMANN_LAT NEUMANN_LON NEUMANN_CLASS NEUMANN_WIND NEUMANN_PRES MLC_LAT MLC_LON MLC_CLASS MLC_WIND MLC_PRES USA_GUST BOM_GUST BOM_GUST_PER REUNION_GUST REUNION_GUST_PER USA_SEAHGT USA_SEARAD_NE USA_SEARAD_SE USA_SEARAD_SW USA_SEARAD_NW STORM_SPEED STORM_DIR
1974075S12121 1974 24 SI WA JESSIE 1974-03-16 00:00:00 TS -11.8000 121.400 main 194 194 O________OO___ jtwc_sh SH291974 -11.8000 121.400 -1 -11.8000 121.400 TC -11.8000 121.400 4 6 0
1974075S12121 1974 24 SI WA JESSIE 1974-03-16 01:00:00 TS -11.9005 121.400 30 998 bom main 204 204 P_____O__PP___ SH291974 -11.8156 121.438 -1 -12.4000 121.200 20 30 998 2.00000 2.00000 -11.8156 121.438 TC -11.8205 121.424 4 4 160
1974075S12121 1974 24 SI WA JESSIE 1974-03-16 03:00:00 TS -11.9660 121.455 main 219 219 P_____P__PP___ SH291974 -11.8475 121.510 -1 -12.4790 121.267 20 30 998 -11.8475 121.510 TC -11.8609 121.472 4 3 140
1974075S12121 1974 24 SI WA JESSIE 1974-03-16 04:00:00 TS -11.9957 121.482 30 998 bom main 219 219 P_____O__PP___ SH291974 -11.8642 121.543 -1 -12.5000 121.300 20 30 998 2.00000 -11.8642 121.543 TC -11.8805 121.496 4 3 158
1974075S12121 1974 24 SI WA JESSIE 1974-03-16 06:00:00 TS -12.1033 121.514 main 229 229 O_____P__OP_O_ jtwc_sh SH291974 -11.9000 121.600 -1 -12.4975 121.367 20 30 997 -11.9000 121.600 TC -11.9175 121.545 4 -12.5000 121.400 TC 35 997 3 168
1974075S12121 1974 24 SI WA JESSIE 1974-03-16 07:00:00 TS -12.1597 121.529 30 997 bom main 239 239 P_____O__PP_P_ SH291974 -11.9193 121.622 -1 -12.5000 121.400 20 30 997 2.00000 -11.9193 121.622 TC -11.9346 121.570 4 -12.5253 121.430 TC 35 996 3 160
1974075S12121 1974 24 SI WA JESSIE 1974-03-16 09:00:00 TS -12.2372 121.571 main 244 244 P_____P__PP_P_ SH291974 -11.9575 121.658 -1 -12.5691 121.467 20 30 996 -11.9575 121.658 TC -11.9653 121.621 4 -12.5700 121.492 TC 37 996 3 155
1974075S12121 1974 24 SI WA JESSIE 1974-03-16 10:00:00 TS -12.2834 121.590 30 996 bom main 254 254 P_____O__PP_P_ SH291974 -11.9746 121.672 -1 -12.6000 121.500 20 30 996 2.50000 -11.9746 121.672 TC -11.9786 121.647 4 -12.5864 121.526 TC 38 995 2 131
1974075S12121 1974 24 SI WA JESSIE 1974-03-16 12:00:00 TS -12.3009 121.643 main 254 254 O_____P__OO_O_ jtwc_sh SH291974 -12.0000 121.700 -1 -12.6054 121.559 20 30 995 -12.0000 121.700 TC -12.0000 121.700 4 -12.6000 121.600 TC 40 995 2 103
1974075S12121 1974 24 SI WA JESSIE 1974-03-16 13:00:00 TS -12.3006 121.674 30 995 bom main 259 259 P_____O__PP_P_ SH291974 -12.0031 121.717 -1 -12.6000 121.600 20 30 995 2.50000 -12.0031 121.717 TC -12.0080 121.727 4 -12.5947 121.642 TC 40 994 2 86
1974075S12121 1974 24 SI WA JESSIE 1974-03-16 15:00:00 TS -12.2930 121.747 main 259 259 P_____P__PP_P_ SH291974 -12.0000 121.750 -1 -12.6079 121.728 20 30 995 -12.0000 121.750 TC -12.0200 121.782 4 -12.5650 121.735 TC 40 994 2 82
1974075S12121 1974 24 SI WA JESSIE 1974-03-16 16:00:00 TS -12.2847 121.786 30 995 bom main 264 264 P_____O__PP_P_ SH291974 -11.9975 121.767 -1 -12.6000 121.800 20 30 995 2.50000 -11.9975 121.767 TC -12.0249 121.807 4 -12.5442 121.787 TC 40 994 2 75
1974075S12121 1974 24 SI WA JESSIE 1974-03-16 18:00:00 TS -12.2623 121.864 main 269 269 O_____P__OP_O_ jtwc_sh SH291974 -12.0000 121.800 -1 -12.5388 121.933 20 33 994 -12.0000 121.800 TC -12.0350 121.852 4 -12.5000 121.900 TC 40 994 3 75
1974075S12121 1974 24 SI WA JESSIE 1974-03-16 19:00:00 TS -12.2523 121.910 35 994 bom main 269 259 P_____O__PP_P_ SH291974 -12.0083 121.825 -1 -12.5000 122.000 30 35 994 2.50000 -12.0083 121.825 TC -12.0410 121.871 4 -12.4781 121.969 TC 40 994 3 79
1974075S12121 1974 24 SI WA JESSIE 1974-03-16 21:00:00 TS -12.2372 122.004 main 259 259 P_____P__PP_P_ SH291974 -12.0350 121.872 -1 -12.4254 122.141 30 35 994 -12.0350 121.872 TC -12.0575 121.897 4 -12.4350 122.115 TC 40 994 3 82
1974075S12121 1974 24 SI WA JESSIE 1974-03-16 22:00:00 TS -12.2351 122.044 35 994 bom main 259 252 P_____O__PP_P_ SH291974 -12.0533 121.890 -1 -12.4000 122.200 30 35 994 2.50000 -12.0533 121.890 TC -12.0688 121.904 4 -12.4176 122.185 TC 40 994 2 98
1974075S12121 1974 24 SI WA JESSIE 1974-03-17 00:00:00 TS -12.2491 122.095 main 252 252 O_____P__OO_O_ jtwc_sh SH291974 -12.1000 121.900 -1 -12.3946 122.272 30 35 994 -12.1000 121.900 TC -12.1000 121.900 4 -12.4000 122.300 TC 40 994 1 115
1974075S12121 1974 24 SI WA JESSIE 1974-03-17 01:00:00 TS -12.2637 122.104 35 994 bom main 261 261 P_____O__PP_P_ SH291974 -12.1276 121.884 -1 -12.4000 122.300 30 35 994 2.50000 2.50000 -12.1276 121.884 TC -12.1245 121.886 4 -12.4026 122.342 TC 40 993 1 155
1974075S12121 1974 24 SI WA JESSIE 1974-03-17 03:00:00 TS -12.2999 122.101 main 261 261 P_____P__PP_P_ SH291974 -12.1925 121.823 -1 -12.3842 122.382 30 38 993 -12.1925 121.823 TC -12.1825 121.839 4 -12.4275 122.395 TC 42 992 1 204
1974075S12121 1974 24 SI WA JESSIE 1974-03-17 04:00:00 TS -12.3265 122.086 40 993 bom main 261 261 P_____O__PP_P_ SH291974 -12.2279 121.783 -1 -12.4000 122.400 30 40 993 2.50000 -12.2279 121.783 TC -12.2151 121.809 4 -12.4479 122.407 TC 43 992 2 215
1974075S12121 1974 24 SI WA JESSIE 1974-03-17 06:00:00 TS -12.4026 122.030 main 277 277 O_____P__OP_O_ jtwc_sh SH291974 -12.3000 121.700 -1 -12.5304 122.344 30 43 990 -12.3000 121.700 TC -12.2850 121.738 4 -12.5000 122.400 TC 45 991 3 218
1974075S12121 1974 24 SI WA JESSIE 1974-03-17 07:00:00 TS -12.4428 122.000 45 990 bom main 277 277 P_____O__PP_P_ SH291974 -12.3333 121.664 -1 -12.6000 122.300 30 45 990 3.00000 -12.3333 121.664 TC -12.3215 121.699 4 -12.5276 122.389 TC 45 990 3 217
1974075S12121 1974 24 SI WA JESSIE 1974-03-17 09:00:00 TS -12.5170 121.936 main 288 288 P_____P__PP_P_ SH291974 -12.4000 121.593 -1 -12.6721 122.241 30 45 989 -12.4000 121.593 TC -12.3950 121.617 4 -12.5925 122.338 TC 47 989 3 221
1974075S12121 1974 24 SI WA JESSIE 1974-03-17 10:00:00 TS -12.5538 121.899 45 989 bom main 298 294 P_____O__PP_P_ SH291974 -12.4333 121.559 -1 -12.7000 122.200 30 45 989 3.00000 -12.4333 121.559 TC -12.4312 121.577 4 -12.6279 122.299 TC 48 989 3 227
1974075S12121 1974 24 SI WA JESSIE 1974-03-17 12:00:00 TS -12.6278 121.813 main 294 294 O_____P__OO_O_ jtwc_sh SH291974 -12.5000 121.500 -1 -12.7667 122.080 30 48 988 -12.5000 121.500 TC -12.5000 121.500 4 -12.7000 122.200 TC 50 988 3 229
1974075S12121 1974 24 SI WA JESSIE 1974-03-17 13:00:00 TS -12.6632 121.772 50 988 bom main 303 298 P_____O__PP_P_ SH291974 -12.5359 121.480 -1 -12.8000 122.000 30 50 988 3.00000 -12.5359 121.480 TC -12.5295 121.490 4 -12.7360 122.147 TC 50 988 3 232
1974075S12121 1974 24 SI WA JESSIE 1974-03-17 15:00:00 TS -12.7317 121.677 main 298 298 P_____P__PP_P_ SH291974 -12.6075 121.450 -1 -12.8667 121.798 30 50 988 -12.6075 121.450 TC -12.5859 121.479 4 -12.8075 122.023 TC 50 988 3 233
1974075S12121 1974 24 SI WA JESSIE 1974-03-17 16:00:00 TS -12.7639 121.629 50 988 bom main 304 300 P_____O__PP_P_ SH291974 -12.6412 121.436 -1 -12.9000 121.700 30 50 988 3.50000 -12.6412 121.436 TC -12.6129 121.473 4 -12.8412 121.952 TC 50 988 3 236
1974075S12121 1974 24 SI WA JESSIE 1974-03-17 18:00:00 TS -12.8232 121.535 main 300 300 O_____P__OP_O_ jtwc_sh SH291974 -12.7000 121.400 -1 -12.9746 121.553 30 50 988 -12.7000 121.400 TC -12.6645 121.455 4 -12.9000 121.800 TC 50 988 3 238
1974075S12121 1974 24 SI WA JESSIE 1974-03-17 19:00:00 TS -12.8455 121.496 50 988 bom main 300 300 P_____O__PP_P_ SH291974 -12.7223 121.388 -1 -13.0000 121.500 30 50 988 3.50000 -12.7223 121.388 TC -12.6890 121.438 4 -12.9197 121.725 TC 50 988 3 246
1974075S12121 1974 24 SI WA JESSIE 1974-03-17 21:00:00 TS -12.8747 121.418 main 307 307 P_____P__PP_P_ SH291974 -12.7574 121.352 -1 -12.9975 121.444 30 50 988 -12.7574 121.352 TC -12.7358 121.379 4 -12.9500 121.565 TC 50 988 3 251
1974075S12121 1974 24 SI WA JESSIE 1974-03-17 22:00:00 TS -12.8884 121.367 50 988 bom main 307 301 P_____O__PP_P_ SH291974 -12.7720 121.319 -1 -13.0000 121.400 30 50 988 3.50000 -12.7720 121.319 TC -12.7580 121.333 4 -12.9642 121.480 TC 50 988 4 255
1974075S12121 1974 24 SI WA JESSIE 1974-03-18 00:00:00 TS -12.9269 121.220 main 301 298 O_____P__OO_O_ jtwc_sh SH291974 -12.8000 121.200 -1 -13.0612 121.219 30 50 988 -12.8000 121.200 TC -12.8000 121.200 4 -13.0000 121.300 TC 50 988 5 255
1974075S12121 1974 24 SI WA JESSIE 1974-03-18 01:00:00 TS -12.9511 121.120 50 988 bom main 309 305 P_____O__PP_P_ SH291974 -12.8167 121.106 -1 -13.1000 121.100 30 50 988 3.50000 3.50000 -12.8167 121.106 TC -12.8178 121.093 4 -13.0276 121.211 TC 50 987 7 257
1974075S12121 1974 24 SI WA JESSIE 1974-03-18 03:00:00 TS -13.0002 120.881 main 305 304 P_____P__PP_P_ SH291974 -12.8500 120.860 -1 -13.1667 120.831 30 50 988 -12.8500 120.860 TC -12.8497 120.833 4 -13.0924 121.022 TC 50 987 7 258
1974075S12121 1974 24 SI WA JESSIE 1974-03-18 04:00:00 TS -13.0256 120.749 50 988 bom main 303 302 P_____O__PP_P_ SH291974 -12.8667 120.715 -1 -13.2000 120.700 30 50 988 3.50000 -12.8667 120.715 TC -12.8645 120.686 4 -13.1278 120.921 TC 50 987 8 259
1974075S12121 1974 24 SI WA JESSIE 1974-03-18 06:00:00 TS -13.0767 120.478 main 313 313 O_____P__OP_O_ jtwc_sh SH291974 -12.9000 120.400 -1 -13.2666 120.502 30 50 987 -12.9000 120.400 TC -12.8934 120.367 4 -13.2000 120.700 TC 50 987 8 259
1974075S12121 1974 24 SI WA JESSIE 1974-03-18 07:00:00 TS -13.1010 120.334 50 987 bom main 314 314 P_____O__PP_P_ SH291974 -12.9141 120.232 -1 -13.3000 120.400 30 50 987 3.50000 -12.9141 120.232 TC -12.9082 120.201 4 -13.2334 120.573 TC 50 986 9 261
1974075S12121 1974 24 SI WA JESSIE 1974-03-18 09:00:00 TS -13.1500 120.026 main 318 318 P_____P__PP_P_ SH291974 -12.9427 119.877 -1 -13.3667 120.139 30 50 986 -12.9427 119.877 TC -12.9403 119.868 4 -13.3001 120.300 TC 52 986 9 261
1974075S12121 1974 24 SI WA JESSIE 1974-03-18 10:00:00 TS -13.1751 119.872 50 986 bom main 331 331 P_____O__PP_P_ SH291974 -12.9589 119.705 -1 -13.4000 120.000 30 50 986 3.50000 -12.9589 119.705 TC -12.9583 119.705 4 -13.3334 120.162 TC 53 985 9 260
1974075S12121 1974 24 SI WA JESSIE 1974-03-18 12:00:00 TS -13.2291 119.586 main 339 339 O_____P__OO_O_ jtwc_sh SH291974 -13.0000 119.400 -1 -13.4746 119.718 30 50 985 -13.0000 119.400 TC -13.0000 119.400 4 -13.4000 119.900 TC 55 985 8 258
1974075S12121 1974 24 SI WA JESSIE 1974-03-18 13:00:00 TS -13.2556 119.478 50 985 bom main 353 353 P_____O__PP_P_ SH291974 -13.0275 119.293 -1 -13.5000 119.600 30 50 985 3.50000 -13.0275 119.293 TC -13.0201 119.297 4 -13.4359 119.791 TC 55 984 6 255
1974075S12121 1974 24 SI WA JESSIE 1974-03-18 15:00:00 TS -13.3019 119.304 main 360 360 P_____P__PP_P_ SH291974 -13.0923 119.127 -1 -13.4975 119.472 30 53 983 -13.0923 119.127 TC -13.0643 119.113 4 -13.5074 119.592 TC 55 984 5 254
1974075S12121 1974 24 SI WA JESSIE 1974-03-18 16:00:00 TS -13.3263 119.222 55 983 bom main 363 363 P_____O__PP_P_ SH291974 -13.1277 119.055 -1 -13.5000 119.400 30 55 983 4.00000 -13.1277 119.055 TC -13.0891 119.028 4 -13.5411 119.497 TC 55 983 6 252
1974075S12121 1974 24 SI WA JESSIE 1974-03-18 18:00:00 TS -13.3845 119.034 main 381 381 O_____P__OP_O_ jtwc_sh SH291974 -13.2000 118.900 -1 -13.5612 119.144 30 55 982 -13.2000 118.900 TC -13.1460 118.859 4 -13.6000 119.300 TC 55 983 6 253
1974075S12121 1974 24 SI WA JESSIE 1974-03-18 19:00:00 TS -13.4101 118.930 55 982 bom main 385 385 P_____O__PP_P_ SH291974 -13.2280 118.808 -1 -13.6000 119.000 30 55 982 4.00000 -13.2280 118.808 TC -13.1788 118.771 4 -13.6171 119.197 TC 55 982 6 256
1974075S12121 1974 24 SI WA JESSIE 1974-03-18 21:00:00 TS -13.4614 118.712 main 404 404 P_____P__PP_P_ SH291974 -13.2848 118.602 -1 -13.6746 118.725 30 55 981 -13.2848 118.602 TC -13.2547 118.575 4 -13.6424 118.980 TC 57 982 7 256
1974075S12121 1974 24 SI WA JESSIE 1974-03-18 22:00:00 TS -13.4887 118.594 55 981 bom main 408 408 P_____O__PP_P_ SH291974 -13.3173 118.484 -1 -13.7000 118.600 30 55 981 4.00000 -13.3173 118.484 TC -13.2986 118.464 4 -13.6562 118.862 TC 58 981 8 257
1974075S12121 1974 24 SI WA JESSIE 1974-03-19 00:00:00 TS -13.5469 118.336 main 423 423 O_____P__OO_O_ jtwc_sh SH291974 -13.4000 118.200 -1 -13.6817 118.418 30 55 981 -13.4000 118.200 TC -13.4000 118.200 4 -13.7000 118.600 TC 60 981 8 256
1974075S12121 1974 24 SI WA JESSIE 1974-03-19 01:00:00 TS -13.5912 118.186 55 981 bom main 438 438 P_____O__PP_P_ SH291974 -13.4526 118.034 -1 -13.7000 118.300 30 55 981 4.00000 4.00000 -13.4526 118.034 TC -13.4620 118.038 4 -13.7333 118.461 TC 60 980 11 251
1974075S12121 1974 24 SI WA JESSIE 1974-03-19 03:00:00 TS -13.7229 117.825 main 469 469 P_____P__PP_P_ SH291974 -13.5775 117.652 -1 -13.8916 117.916 30 58 979 -13.5775 117.652 TC -13.6013 117.675 4 -13.8198 118.152 TC 62 979 12 249
1974075S12121 1974 24 SI WA JESSIE 1974-03-19 04:00:00 TS -13.7980 117.626 60 979 bom main 487 487 P_____O__PP_P_ SH291974 -13.6479 117.443 -1 -14.0000 117.700 30 60 979 4.00000 -13.6479 117.443 TC -13.6768 117.477 4 -13.8731 117.981 TC 63 978 13 250
1974075S12121 1974 24 SI WA JESSIE 1974-03-19 06:00:00 TS -13.9443 117.210 main 513 513 O_____P__OP_O_ jtwc_sh SH291974 -13.8000 117.000 -1 -14.1308 117.308 30 63 976 -13.8000 117.000 TC -13.8349 117.050 4 -14.0000 117.600 TC 65 977 13 250
1974075S12121 1974 24 SI WA JESSIE 1974-03-19 07:00:00 TS -14.0222 116.996 65 975 bom main 533 533 P_____O__PP_P_ SH291974 -13.8801 116.783 -1 -14.2000 117.100 40 65 975 4.50000 -13.8801 116.783 TC -13.9156 116.824 4 -14.0771 117.395 TC 66 976 14 249
1974075S12121 1974 24 SI WA JESSIE 1974-03-19 09:00:00 TS -14.1976 116.540 main 573 573 P_____P__PP_P_ SH291974 -14.0498 116.330 -1 -14.4103 116.647 40 68 972 -14.0498 116.330 TC -14.0760 116.350 4 -14.2499 116.945 TC 70 974 15 249
1974075S12121 1974 24 SI WA JESSIE 1974-03-19 10:00:00 TS -14.2831 116.299 70 972 bom main 587 587 P_____O__PP_P_ SH291974 -14.1356 116.093 -1 -14.5000 116.400 40 70 972 4.50000 -14.1356 116.093 TC -14.1538 116.104 4 -14.3382 116.704 TC 71 973 15 252
1974075S12121 1974 24 SI WA JESSIE 1974-03-19 12:00:00 TS -14.4270 115.794 main 607 607 O_____P__OO_O_ jtwc_sh SH291974 -14.3000 115.600 -1 -14.5617 115.864 40 73 970 -14.3000 115.600 TC -14.3000 115.600 4 -14.5000 116.200 TC 75 971 15 254
1974075S12121 1974 24 SI WA JESSIE 1974-03-19 13:00:00 TS -14.4942 115.538 75 970 bom main 623 623 P_____O__PP_P_ SH291974 -14.3776 115.345 -1 -14.6000 115.600 40 75 970 4.50000 -14.3776 115.345 TC -14.3712 115.346 4 -14.5613 115.947 TC 75 970 16 254
1974075S12121 1974 24 SI WA JESSIE 1974-03-19 15:00:00 TS -14.6409 115.023 main 645 645 P_____P__PP_P_ SH291974 -14.5224 114.815 -1 -14.8048 115.144 40 75 968 -14.5224 114.815 TC -14.5085 114.819 4 -14.6648 115.422 TC 75 969 16 254
1974075S12121 1974 24 SI WA JESSIE 1974-03-19 16:00:00 TS -14.7078 114.757 75 968 bom main 661 660 P_____O__PP_P_ SH291974 -14.5878 114.544 -1 -14.9000 114.900 40 75 968 4.50000 -14.5878 114.544 TC -14.5731 114.549 4 -14.7107 115.152 TC 75 969 16 258
1974075S12121 1974 24 SI WA JESSIE 1974-03-19 18:00:00 TS -14.8101 114.199 main 673 673 O_____P__OP_O_ jtwc_sh SH291974 -14.7000 114.000 -1 -14.9697 114.295 40 78 966 -14.7000 114.000 TC -14.6906 114.001 4 -14.8000 114.600 TC 75 968 17 259
1974075S12121 1974 24 SI WA JESSIE 1974-03-19 19:00:00 TS -14.8583 113.918 80 966 bom main 687 687 P_____O__PP_P_ SH291974 -14.7526 113.725 -1 -15.0000 114.000 40 80 966 5.00000 -14.7526 113.725 TC -14.7421 113.726 4 -14.8552 114.315 TC 75 967 16 260
1974075S12121 1974 24 SI WA JESSIE 1974-03-19 21:00:00 TS -14.9555 113.376 main 706 706 P_____P__PP_P_ SH291974 -14.8374 113.178 -1 -15.1435 113.546 40 80 965 -14.8374 113.178 TC -14.8273 113.182 4 -14.9650 113.735 TC 77 966 16 260
1974075S12121 1974 24 SI WA JESSIE 1974-03-19 22:00:00 TS -14.9939 113.105 80 965 bom main 713 713 P_____O__PP_P_ SH291974 -14.8679 112.910 -1 -15.2000 113.300 40 80 965 5.00000 -14.8679 112.910 TC -14.8595 112.915 4 -15.0158 113.449 TC 78 966 16 264
1974075S12121 1974 24 SI WA JESSIE 1974-03-20 00:00:00 TS -15.0352 112.554 main 727 727 O_____P__OO_O_ jtwc_sh SH291974 -14.9000 112.400 -1 -15.2110 112.626 40 80 964 -14.9000 112.400 TC -14.9000 112.400 4 -15.1000 112.900 TC 80 965 16 266
1974075S12121 1974 24 SI WA JESSIE 1974-03-20 01:00:00 TS -15.0452 112.300 80 964 bom main 735 735 P_____O__PP_P_ SH291974 -14.9029 112.166 -1 -15.2000 112.300 40 80 964 5.00000 5.00000 4 -14.9029 112.166 TC -14.9021 112.167 4 -15.1331 112.649 TC 80 965 14 269
1974075S12121 1974 24 SI WA JESSIE 1974-03-20 03:00:00 TS -15.0484 111.840 main 739 739 P_____P__PP_P_ SH291974 -14.8796 111.727 -1 -15.1920 111.809 40 80 964 -14.8796 111.727 TC -14.8801 111.718 4 -15.1796 112.177 TC 80 965 13 270
1974075S12121 1974 24 SI WA JESSIE 1974-03-20 04:00:00 TS -15.0435 111.623 80 965 bom main 739 739 P_____O__PP_P_ SH291974 -14.8572 111.517 -1 -15.2000 111.600 40 80 965 5.00000 -14.8572 111.517 TC -14.8585 111.501 4 -15.1930 111.950 TC 80 965 12 272
1974075S12121 1974 24 SI WA JESSIE 1974-03-20 06:00:00 TS -15.0296 111.196 main 741 741 O_____P__OP_O_ jtwc_sh SH291974 -14.8000 111.100 -1 -15.2769 111.203 40 80 966 -14.8000 111.100 TC -14.8006 111.076 4 -15.2000 111.500 TC 80 966 13 273
1974075S12121 1974 24 SI WA JESSIE 1974-03-20 07:00:00 TS -15.0132 110.977 80 967 bom main 743 743 P_____O__PP_P_ SH291974 -14.7696 110.886 -1 -15.3000 111.000 40 80 967 5.00000 -14.7696 110.886 TC -14.7668 110.866 4 -15.1921 111.261 TC 79 966 13 277
1974075S12121 1974 24 SI WA JESSIE 1974-03-20 09:00:00 TS -14.9520 110.528 main 750 739 P_____P__PP_P_ SH291974 -14.6998 110.457 -1 -15.2442 110.539 40 80 966 -14.6998 110.457 TC -14.6958 110.446 4 -15.1574 110.785 TC 77 967 13 278
1974075S12121 1974 24 SI WA JESSIE 1974-03-20 10:00:00 TS -14.9167 110.303 80 966 bom main 743 743 P_____O__PP_P_ SH291974 -14.6640 110.241 -1 -15.2000 110.300 40 80 966 5.00000 -14.6640 110.241 TC -14.6612 110.234 4 -15.1362 110.551 TC 76 967 13 279
1974075S12121 1974 24 SI WA JESSIE 1974-03-20 12:00:00 TS -14.8542 109.853 main 752 743 O_____P__OO_O_ jtwc_sh SH291974 -14.6000 109.800 -1 -15.1254 109.818 40 76 968 -14.6000 109.800 TC -14.6000 109.800 4 -15.1000 110.100 TC 75 969 13 277
1974075S12121 1974 24 SI WA JESSIE 1974-03-20 13:00:00 TS -14.8316 109.634 75 970 bom main 748 748 P_____O__PP_P_ SH291974 -14.5749 109.575 -1 -15.1000 109.600 40 75 970 4.50000 -14.5749 109.575 TC -14.5737 109.569 4 -15.0941 109.891 TC 75 969 12 275
1974075S12121 1974 24 SI WA JESSIE 1974-03-20 15:00:00 TS -14.8025 109.214 main 757 757 P_____P__PP_P_ SH291974 -14.5348 109.115 -1 -15.1023 109.272 40 71 971 -14.5348 109.115 TC -14.5236 109.100 4 -15.0922 109.493 TC 75 970 12 274
1974075S12121 1974 24 SI WA JESSIE 1974-03-20 16:00:00 TS -14.7912 109.003 70 972 bom main 762 762 P_____O__PP_P_ SH291974 -14.5198 108.880 -1 -15.1000 109.100 40 70 972 4.50000 -14.5198 108.880 TC -14.5015 108.862 4 -15.0943 109.297 TC 75 970 13 273
1974075S12121 1974 24 SI WA JESSIE 1974-03-20 18:00:00 TS -14.7650 108.553 main 773 773 O_____P__OP_O_ jtwc_sh SH291974 -14.5000 108.400 -1 -15.0230 108.636 40 70 971 -14.5000 108.400 TC -14.4669 108.379 4 -15.1000 108.900 TC 75 971 13 273
1974075S12121 1974 24 SI WA JESSIE 1974-03-20 19:00:00 TS -14.7552 108.317 70 971 bom main 784 784 P_____O__PP_P_ SH291974 -14.4863 108.156 -1 -15.0000 108.400 40 70 971 4.50000 -14.4863 108.156 TC -14.4561 108.135 4 -15.0974 108.679 TC 74 971 14 270
1974075S12121 1974 24 SI WA JESSIE 1974-03-20 21:00:00 TS -14.7638 107.851 main 785 785 P_____P__PP_P_ SH291974 -14.4698 107.657 -1 -15.0636 108.003 40 70 971 -14.4698 107.657 TC -14.4517 107.643 4 -15.0926 108.227 TC 72 971 14 268
1974075S12121 1974 24 SI WA JESSIE 1974-03-20 22:00:00 TS -14.7749 107.619 70 972 bom main 788 788 P_____O__PP_P_ SH291974 -14.4707 107.405 -1 -15.1000 107.800 40 70 972 4.50000 -14.4707 107.405 TC -14.4596 107.396 4 -15.0922 108.007 TC 71 971 14 267
1974075S12121 1974 24 SI WA JESSIE 1974-03-21 00:00:00 TS -14.8009 107.153 main 794 794 O_____P__OO_O_ jtwc_sh SH291974 -14.5000 106.900 -1 -15.1055 107.315 40 70 972 -14.5000 106.900 TC -14.5000 106.900 4 -15.1000 107.600 TC 70 972 13 266
1974075S12121 1974 24 SI WA JESSIE 1974-03-21 01:00:00 TS -14.8189 106.935 70 973 bom main 800 800 P_____O__PP_P_ SH291974 -14.5275 106.650 -1 -15.1000 107.100 40 70 973 4.50000 4.50000 -14.5275 106.650 TC -14.5338 106.651 4 -15.1108 107.425 TC 70 972 12 263
1974075S12121 1974 24 SI WA JESSIE 1974-03-21 03:00:00 TS -14.8713 106.538 main 818 818 P_____P__PP_P_ SH291974 -14.6123 106.150 -1 -15.0920 106.809 40 70 973 -14.6123 106.150 TC -14.6266 106.154 4 -15.1422 107.113 TC 70 972 11 261
1974075S12121 1974 24 SI WA JESSIE 1974-03-21 04:00:00 TS -14.9065 106.351 70 973 bom main 820 820 P_____O__PP_P_ SH291974 -14.6677 105.900 -1 -15.1000 106.700 40 70 973 4.50000 -14.6677 105.900 TC -14.6840 105.904 4 -15.1610 106.970 TC 70 972 11 257
1974075S12121 1974 24 SI WA JESSIE 1974-03-21 06:00:00 TS -14.9963 105.983 main 840 840 O_____P__OP_O_ jtwc_sh SH291974 -14.8000 105.400 -1 -15.1612 106.495 40 70 972 -14.8000 105.400 TC -14.8168 105.405 4 -15.2000 106.700 TC 70 973 11 255
1974075S12121 1974 24 SI WA JESSIE 1974-03-21 07:00:00 TS -15.0478 105.801 70 972 bom main 846 846 P_____O__PP_P_ SH291974 -14.8750 105.150 -1 -15.2000 106.400 40 70 972 4.50000 -14.8750 105.150 TC -14.8906 105.155 4 -15.2185 106.567 TC 70 973 10 249
1974075S12121 1974 24 SI WA JESSIE 1974-03-21 09:00:00 TS -15.1684 105.513 main 876 876 P_____P__PP_P_ SH291974 -15.0380 104.650 -1 -15.2666 106.216 40 70 972 -15.0380 104.650 TC -15.0487 104.654 4 -15.2527 106.300 TC 70 973 8 240
1974075S12121 1974 24 SI WA JESSIE 1974-03-21 10:00:00 TS -15.2380 105.457 70 972 bom main 876 876 P_____O__PP_P_ SH291974 -15.1240 104.400 -1 -15.3000 106.100 40 70 972 4.50000 -15.1240 104.400 TC -15.1314 104.403 4 -15.2688 106.167 TC 70 973 5 224
1974075S12121 1974 24 SI WA JESSIE 1974-03-21 12:00:00 TS -15.3556 105.323 main 903 895 O_____P__OO_O_ jtwc_sh SH291974 -15.3000 103.900 -1 -15.3667 105.770 40 70 972 -15.3000 103.900 TC -15.3000 103.900 4 -15.3000 105.900 TC 70 973 5 138
1974075S12121 1974 24 SI WA JESSIE 1974-03-21 13:00:00 TS -15.4167 105.628 70 973 bom main 895 895 ______O_______ SH291974 -1 -15.4000 105.600 40 70 973 4.50000 TC 4 TC 3 0
1974075S12121 1974 24 SI WA JESSIE 1974-03-21 15:00:00 TS -15.4834 105.339 main 914 914 ______P_______ SH291974 -1 -15.4666 105.328 40 70 973 TC 4 TC 9 256
1974075S12121 1974 24 SI WA JESSIE 1974-03-21 16:00:00 TS -15.5167 105.198 70 973 bom main 916 916 ______O_______ SH291974 -1 -15.5000 105.200 40 70 973 4.50000 TC 4 TC 8 256
1974075S12121 1974 24 SI WA JESSIE 1974-03-21 18:00:00 TS -15.5873 104.913 main 932 932 ______P_______ -1 -15.5746 104.925 40 70 972 4 8 256
1974075S12121 1974 24 SI WA JESSIE 1974-03-21 19:00:00 TS -15.6127 104.791 70 972 bom main 934 934 ______O_______ -1 -15.6000 104.800 40 70 972 4.50000 4 6 262
1974075S12121 1974 24 SI WA JESSIE 1974-03-21 21:00:00 TS -15.6294 104.584 main 939 939 ______P_______ -1 -15.5817 104.602 40 70 972 4 6 262
1974075S12121 1974 24 SI WA JESSIE 1974-03-21 22:00:00 TS -15.6547 104.477 70 972 bom main 952 952 ______O_______ -1 -15.6000 104.500 40 70 972 4.50000 4 8 245
1974075S12121 1974 24 SI WA JESSIE 1974-03-22 00:00:00 TS -15.7918 104.227 main 970 970 ______P_______ -1 -15.7837 104.255 40 70 972 9 240
1974075S12121 1974 24 SI WA JESSIE 1974-03-22 01:00:00 TS -15.8805 104.072 70 973 bom main 984 984 ______O_______ -1 -15.9000 104.100 40 70 973 4.50000 11 242
1974075S12121 1974 24 SI WA JESSIE 1974-03-22 03:00:00 TS -16.0602 103.703 main 1017 1017 ______P_______ -1 -16.1079 103.711 40 70 973 12 244
1974075S12121 1974 24 SI WA JESSIE 1974-03-22 04:00:00 TS -16.1506 103.502 70 974 bom main 1034 1034 ______O_______ -1 -16.2000 103.500 40 70 974 4.50000 4.50000 13 246
1974075S12121 1974 24 SI WA JESSIE 1974-03-22 06:00:00 TS -16.3154 103.100 main 1059 1059 ______P_______ -1 -16.3308 103.100 40 66 974 13 246
1974075S12121 1974 24 SI WA JESSIE 1974-03-22 07:00:00 TS -16.4053 102.895 65 975 bom main 1077 1077 ______O_______ -1 -16.4000 102.900 40 65 975 4.50000 13 243
1974075S12121 1974 24 SI WA JESSIE 1974-03-22 09:00:00 TS -16.6183 102.479 main 1114 1114 ______P_______ -1 -16.5866 102.508 40 65 977 14 241
1974075S12121 1974 24 SI WA JESSIE 1974-03-22 10:00:00 TS -16.7358 102.264 65 978 bom main 1132 1132 ______O_______ -1 -16.7000 102.300 40 65 978 4.50000 15 240
1974075S12121 1974 24 SI WA JESSIE 1974-03-22 12:00:00 TS -16.9806 101.815 main 1185 1185 ______P_______ -1 -16.9612 101.831 40 61 981 14 240
1974075S12121 1974 24 SI WA JESSIE 1974-03-22 13:00:00 TS -17.0920 101.606 60 983 bom main 1204 1204 ______O_______ -1 -17.1000 101.600 30 60 983 4.00000 13 239
1974075S12121 1974 24 SI WA JESSIE 1974-03-22 15:00:00 TS -17.3164 101.222 main 1243 1243 ______P_______ -1 -17.3982 101.187 30 56 985 13 240
1974075S12121 1974 24 SI WA JESSIE 1974-03-22 16:00:00 TS -17.4061 101.039 55 986 bom main 1263 1263 ______O_______ -1 -17.5000 101.000 30 55 986 4.00000 11 252
1974075S12121 1974 24 SI WA JESSIE 1974-03-22 18:00:00 TS -17.4832 100.688 main 1288 1288 ______P_______ -1 -17.4663 100.677 30 55 985 11 253
1974075S12121 1974 24 SI WA JESSIE 1974-03-22 19:00:00 TS -17.5662 100.488 55 985 bom main 1309 1309 ______O_______ -1 -17.5000 100.500 30 55 985 4.00000 16 234
1974075S12121 1974 24 SI WA JESSIE 1974-03-22 21:00:00 TS -17.9477 100.026 main 1364 1364 ______P_______ -1 -17.9602 100.052 30 55 985 18 229
1974075S12121 1974 24 SI WA JESSIE 1974-03-22 22:00:00 TS -18.1471 99.7798 55 986 bom main 1394 1394 ______O_______ -1 -18.2000 99.8000 30 55 986 4.00000 17 237
1974075S12121 1974 24 SI WA JESSIE 1974-03-23 00:00:00 TS -18.4070 99.2702 main 1447 1447 ______P_______ -1 -18.4139 99.2403 30 51 987 16 242
1974075S12121 1974 24 SI WA JESSIE 1974-03-23 01:00:00 TS -18.5126 99.0483 50 988 bom main 1472 1472 ______O_______ -1 -18.5000 99.0000 30 50 988 3.50000 13 236
1974075S12121 1974 24 SI WA JESSIE 1974-03-23 03:00:00 TS -18.7631 98.7234 main 1516 1516 ______P_______ -1 -18.7690 98.7273 30 50 988 12 230
1974075S12121 1974 24 SI WA JESSIE 1974-03-23 04:00:00 TS -18.8847 98.5710 50 989 bom main 1531 1531 ______O_______ -1 -18.9000 98.6000 30 50 989 3.50000 3.50000 12 236
1974075S12121 1974 24 SI WA JESSIE 1974-03-23 06:00:00 TS -19.0988 98.2015 main 1571 1571 ______P_______ -1 -19.0976 98.2029 30 50 989 12 238
1974075S12121 1974 24 SI WA JESSIE 1974-03-23 07:00:00 TS -19.2138 98.0125 50 989 bom main 1591 1591 ______O_______ -1 -19.2000 98.0000 30 50 989 3.50000 13 233
1974075S12121 1974 24 SI WA JESSIE 1974-03-23 09:00:00 TS -19.4768 97.6730 main 1636 1636 ______P_______ -1 -19.4612 97.6612 30 50 990 12 230
1974075S12121 1974 24 SI WA JESSIE 1974-03-23 10:00:00 TS -19.6139 97.5099 50 991 bom main 1657 1657 ______O_______ -1 -19.6000 97.5000 30 50 991 3.50000 12 229
1974075S12121 1974 24 SI WA JESSIE 1974-03-23 12:00:00 TS -19.8833 97.1794 main 1702 1702 ______P_______ -1 -19.8667 97.1587 30 43 992 12 229
1974075S12121 1974 24 SI WA JESSIE 1974-03-23 13:00:00 TS -20.0140 97.0207 40 993 bom main 1722 1722 ______O_______ -1 -20.0000 97.0000 30 40 993 3.00000 11 227
1974075S12121 1974 24 SI WA JESSIE 1974-03-23 15:00:00 TS -20.2718 96.7312 main 1766 1766 ______P_______ -1 -20.2587 96.7278 30 40 993 11 226
1974075S12121 1974 24 SI WA JESSIE 1974-03-23 16:00:00 TS -20.4087 96.5932 40 994 bom main 1774 1774 ______O_______ -1 -20.4000 96.6000 30 40 994 3.00000 12 221
1974075S12121 1974 24 SI WA JESSIE 1974-03-23 18:00:00 TS -20.7139 96.3206 main 1799 1797 ______P_______ -1 -20.7279 96.3412 30 40 993 12 220
1974075S12121 1974 24 SI WA JESSIE 1974-03-23 19:00:00 TS -20.8763 96.1765 40 993 bom main 1805 1805 ______O_______ -1 -20.9000 96.2000 30 40 993 3.00000 13 221
1974075S12121 1974 24 SI WA JESSIE 1974-03-23 21:00:00 TS -21.2054 95.8632 main 1827 1827 ______P_______ -1 -21.2334 95.8563 30 40 993 13 221
1974075S12121 1974 24 SI WA JESSIE 1974-03-23 22:00:00 TS -21.3740 95.7188 40 993 bom main 1841 1838 ______O_______ -1 -21.4000 95.7000 30 40 993 3.00000 12 214
1974075S12121 1974 24 SI WA JESSIE 1974-03-24 00:00:00 TS -21.7127 95.4906 main 1853 1851 ______P_______ -1 -21.7254 95.4812 30 40 993 12 210
1974075S12121 1974 24 SI WA JESSIE 1974-03-24 01:00:00 TS -21.8861 95.3984 40 994 bom main 1859 1856 ______O_______ -1 -21.9000 95.4000 30 40 994 3.00000 12 202
1974075S12121 1974 24 SI WA JESSIE 1974-03-24 03:00:00 TS -22.2649 95.2443 main 1870 1868 ______P_______ -1 -22.3024 95.2691 30 40 994 12 200
1974075S12121 1974 24 SI WA JESSIE 1974-03-24 04:00:00 TS -22.4560 95.1711 40 995 bom main 1866 1866 ______O_______ -1 -22.5000 95.2000 30 40 995 3.00000 3.00000 12 203
1974075S12121 1974 24 SI WA JESSIE 1974-03-24 06:00:00 TS -22.8154 94.9988 main 1881 1879 ______P_______ -1 -22.8309 94.9975 30 40 994 12 204
1974075S12121 1974 24 SI WA JESSIE 1974-03-24 07:00:00 TS -23.0000 94.9086 40 994 bom main 1887 1886 ______O_______ -1 -23.0000 94.9000 30 40 994 3.00000 13 201
1974075S12121 1974 24 SI WA JESSIE 1974-03-24 09:00:00 TS -23.3994 94.7580 main 1889 1889 ______P_______ -1 -23.3788 94.7533 30 36 995 13 198
1974075S12121 1974 24 SI WA JESSIE 1974-03-24 10:00:00 TS -23.6200 94.6983 35 996 bom main 1894 1889 ______O_______ -1 -23.6000 94.7000 30 35 996 3.00000 15 191
1974075S12121 1974 24 SI WA JESSIE 1974-03-24 12:00:00 TS -24.1152 94.6022 main 1893 1889 ______P_______ -1 -24.1304 94.6043 30 31 998 15 187
1974075S12121 1974 24 SI WA JESSIE 1974-03-24 13:00:00 TS -24.3680 94.5885 30 999 bom main 1887 1870 ______O_______ -1 -24.4000 94.6000 20 30 999 2.50000 15 175
1974075S12121 1974 24 SI WA JESSIE 1974-03-24 15:00:00 TS -24.8498 94.6628 main 1870 1865 ______P_______ -1 -24.8721 94.7561 20 30 1001 15 173
1974075S12121 1974 24 SI WA JESSIE 1974-03-24 16:00:00 TS -25.0906 94.6889 30 1002 bom main 1865 1860 ______O_______ -1 -25.1000 94.8000 20 30 1002 2.50000 15 184
1974075S12121 1974 24 SI WA JESSIE 1974-03-24 18:00:00 TS -25.5794 94.6019 main 1868 1865 ______P_______ -1 -25.5588 94.6038 20 26 1001 15 190
1974075S12121 1974 24 SI WA JESSIE 1974-03-24 19:00:00 TS -25.8316 94.5535 25 1001 bom main 1865 1865 ______O_______ -1 -25.8000 94.5000 20 25 1001 2.00000 16 184
1974075S12121 1974 24 SI WA JESSIE 1974-03-24 21:00:00 TS -26.3521 94.5334 main 1869 1868 ______P_______ -1 -26.3200 94.4757 20 25 1001 16 0
1974075S12121 1974 24 SI WA JESSIE 1974-03-24 22:00:00 TS -26.6251 94.5433 25 1002 bom main 1868 1856 ______O_______ -1 -26.6000 94.5000 20 25 1002 2.00000 17 177
1974075S12121 1974 24 SI WA JESSIE 1974-03-25 00:00:00 TS -27.1961 94.5764 main 1856 1855 ______P_______ -1 -27.1941 94.5646 20 25 1002 18 176
1974075S12121 1974 24 SI WA JESSIE 1974-03-25 01:00:00 NR -27.5000 94.6000 25 1003 bom main 1855 ______O_______ -1 -27.5000 94.6000 20 25 1003 2.00000 2.00000 18 0

About IBTrACS Database

This database is a web-friendly format of International Best Track Archive for Climate Stewardship (IBTrACS), a global best track data archive curated by NOAA dating back to 1842.

Updated: 2021-11-26